Terminal Aerodrome Forecast
Issued by NWS

Home | Current Version | Previous Version | Text Only | Print | Product List | Glossary On
Versions: 1 2 3 4 5 6 7 8 9 10 11 12 13
000
FTUS42 KMLB 201700
TAFFPR
TAF
KFPR 201725Z 2018/2118 08009KT P6SM VCSH SCT040 SCT250
     FM210200 18003KT P6SM FEW250
     FM211500 07008KT P6SM FEW040 FEW250=

USA.gov is the U.S. government's official web portal to all federal, state and local government web resources and services.